createdAt,value
2018-12-04T00:00:27.761Z,57.83
2018-12-04T00:02:56.593Z,55.37
2018-12-04T00:05:25.421Z,56.20
2018-12-04T00:07:54.297Z,52.40
2018-12-04T00:10:23.130Z,53.40
2018-12-04T00:12:52.029Z,56.67
2018-12-04T00:15:20.928Z,51.00
2018-12-04T00:17:50.556Z,47.93
2018-12-04T00:20:19.400Z,47.97
2018-12-04T00:22:48.271Z,46.10
2018-12-04T00:25:21.237Z,49.03
2018-12-04T00:27:52.000Z,50.00
2018-12-04T00:30:32.720Z,51.43
2018-12-04T00:33:02.733Z,49.13
2018-12-04T00:35:32.970Z,54.03
2018-12-04T00:38:03.578Z,52.60
2018-12-04T00:40:37.630Z,56.97
2018-12-04T00:43:07.458Z,55.07
2018-12-04T00:45:36.288Z,51.50
2018-12-04T00:48:05.761Z,52.40
2018-12-04T00:50:34.658Z,51.80
2018-12-04T00:53:05.160Z,53.57
2018-12-04T00:55:42.162Z,52.00
2018-12-04T00:58:11.045Z,50.70
2018-12-04T01:00:40.601Z,48.00
2018-12-04T01:03:09.438Z,49.97
2018-12-04T01:05:38.820Z,52.67
2018-12-04T01:08:07.653Z,53.07
2018-12-04T01:10:36.589Z,51.20
2018-12-04T01:13:05.409Z,51.00
2018-12-04T01:15:35.241Z,60.87
2018-12-04T01:18:04.094Z,52.67
2018-12-04T01:20:33.874Z,50.87
2018-12-04T01:23:02.705Z,51.50
2018-12-04T01:25:31.569Z,47.73
2018-12-04T01:28:00.409Z,45.73
2018-12-04T01:30:29.214Z,47.13
2018-12-04T01:32:58.322Z,48.30
2018-12-04T01:35:27.102Z,49.37
2018-12-04T01:37:55.925Z,47.67
2018-12-04T01:40:24.770Z,46.33
2018-12-04T01:42:53.574Z,48.67
2018-12-04T01:45:22.369Z,55.10
2018-12-04T01:47:51.211Z,48.80
2018-12-04T01:50:20.050Z,49.40
2018-12-04T01:52:50.353Z,52.60
2018-12-04T01:55:19.144Z,59.63
2018-12-04T01:57:47.932Z,59.70
2018-12-04T02:00:16.782Z,55.37
2018-12-04T02:02:45.579Z,58.43
2018-12-04T02:05:14.511Z,60.20
2018-12-04T02:07:43.368Z,55.07
2018-12-04T02:10:12.161Z,61.53
2018-12-04T02:12:41.037Z,60.47
2018-12-04T02:15:10.239Z,58.50
2018-12-04T02:17:39.019Z,65.37
2018-12-04T02:20:07.869Z,52.70
2018-12-04T02:22:36.713Z,55.33
2018-12-04T02:25:05.918Z,56.13
2018-12-04T02:27:34.739Z,51.67
2018-12-04T02:30:04.197Z,54.07
2018-12-04T02:32:33.026Z,53.47
2018-12-04T02:35:01.809Z,60.90
2018-12-04T02:37:30.635Z,56.03
2018-12-04T02:39:59.444Z,55.17
2018-12-04T02:42:28.995Z,54.17
2018-12-04T02:44:59.189Z,58.33
2018-12-04T02:47:33.209Z,62.90
2018-12-04T02:50:07.374Z,59.77
2018-12-04T02:52:38.673Z,59.20
2018-12-04T02:55:07.805Z,70.10
2018-12-04T02:57:43.093Z,69.90
2018-12-04T03:00:13.110Z,69.87
2018-12-04T03:02:41.902Z,66.70
2018-12-04T03:05:10.811Z,63.43
2018-12-04T03:07:42.214Z,65.03
2018-12-04T03:10:13.518Z,59.17
2018-12-04T03:12:44.034Z,58.80
2018-12-04T03:15:12.924Z,55.77
2018-12-04T03:17:41.729Z,55.23
2018-12-04T03:20:12.757Z,56.03
2018-12-04T03:22:41.549Z,62.13
2018-12-04T03:25:14.384Z,64.43
2018-12-04T03:27:46.112Z,58.77
2018-12-04T03:30:14.991Z,57.20
2018-12-04T03:32:43.806Z,55.03
2018-12-04T03:35:14.538Z,57.30
2018-12-04T03:37:44.401Z,62.13
2018-12-04T03:40:14.117Z,64.10
2018-12-04T03:42:44.683Z,60.60
2018-12-04T03:45:13.650Z,53.93
2018-12-04T03:47:42.970Z,55.53
2018-12-04T03:50:14.091Z,53.73
2018-12-04T03:52:46.485Z,53.63
2018-12-04T03:55:15.349Z,52.40
2018-12-04T03:57:44.189Z,50.80
2018-12-04T04:00:24.190Z,54.67
2018-12-04T04:02:56.471Z,51.83
2018-12-04T04:05:25.365Z,46.60
2018-12-04T04:07:54.153Z,53.17
2018-12-04T04:10:23.017Z,50.07
2018-12-04T04:12:55.542Z,51.60
2018-12-04T04:15:28.013Z,50.73
2018-12-04T04:17:58.849Z,50.50
2018-12-04T04:20:27.654Z,50.70
2018-12-04T04:22:56.456Z,51.60
2018-12-04T04:25:26.478Z,51.53
2018-12-04T04:27:56.175Z,53.33
2018-12-04T04:30:26.361Z,48.97
2018-12-04T04:32:55.825Z,48.83
2018-12-04T04:35:24.634Z,50.20
2018-12-04T04:37:53.473Z,53.07
2018-12-04T04:40:22.854Z,54.67
2018-12-04T04:42:57.794Z,48.83
2018-12-04T04:45:27.275Z,50.40
2018-12-04T04:47:56.998Z,47.47
2018-12-04T04:50:25.947Z,51.20
2018-12-04T04:52:57.232Z,46.07
2018-12-04T04:55:27.109Z,50.30
2018-12-04T04:57:58.312Z,59.23
2018-12-04T05:00:28.861Z,56.67
2018-12-04T05:03:01.254Z,62.83
2018-12-04T05:05:37.689Z,53.83
2018-12-04T05:08:07.112Z,49.17
2018-12-04T05:15:33.500Z,36.17
2018-12-04T05:18:03.663Z,38.47
2018-12-04T05:20:32.505Z,40.67
2018-12-04T05:23:02.660Z,38.93
2018-12-04T05:25:31.533Z,32.93
2018-12-04T05:28:00.341Z,34.23
2018-12-04T05:30:29.158Z,38.37
2018-12-04T05:32:59.251Z,39.40
2018-12-04T05:35:28.107Z,42.53
2018-12-04T05:37:58.261Z,41.50
2018-12-04T05:40:27.043Z,47.60
2018-12-04T05:42:55.970Z,45.53
2018-12-04T05:45:25.973Z,43.37
2018-12-04T05:47:54.800Z,36.87
2018-12-04T05:50:23.583Z,39.33
2018-12-04T05:53:03.404Z,38.97
2018-12-04T05:55:33.477Z,40.00
2018-12-04T05:58:02.933Z,43.07
2018-12-04T06:00:33.138Z,38.27
2018-12-04T06:03:02.025Z,40.87
2018-12-04T06:05:31.517Z,30.27
2018-12-04T06:08:03.248Z,39.03
2018-12-04T06:10:32.704Z,37.90
2018-12-04T06:13:03.102Z,36.13
2018-12-04T06:15:31.974Z,41.70
2018-12-04T06:18:00.993Z,42.00
2018-12-04T06:20:29.962Z,37.60
2018-12-04T06:23:02.134Z,37.10
2018-12-04T06:25:31.885Z,36.90
2018-12-04T06:28:00.838Z,39.20
2018-12-04T06:30:29.715Z,38.00
2018-12-04T06:32:58.518Z,44.53
2018-12-04T06:35:29.682Z,37.57
2018-12-04T06:37:58.509Z,42.07
2018-12-04T06:40:27.318Z,41.23
2018-12-04T06:42:56.121Z,41.07
2018-12-04T06:45:24.954Z,39.83
2018-12-04T06:47:53.753Z,45.37
2018-12-04T06:50:22.612Z,47.57
2018-12-04T06:52:52.677Z,46.20
2018-12-04T06:55:21.476Z,52.53
2018-12-04T06:57:58.690Z,45.83
2018-12-04T07:00:27.524Z,42.70
2018-12-04T07:02:56.334Z,42.63
2018-12-04T07:05:25.211Z,39.30
2018-12-04T07:07:54.010Z,47.33
2018-12-04T07:10:22.857Z,44.97
2018-12-04T07:12:53.220Z,50.13
2018-12-04T07:15:28.314Z,46.47
2018-12-04T07:18:01.482Z,47.30
2018-12-04T07:20:31.343Z,59.33
2018-12-04T07:23:00.169Z,60.20
2018-12-04T07:25:28.993Z,50.47
2018-12-04T07:27:58.333Z,56.90
2018-12-04T07:30:28.388Z,47.40
2018-12-04T07:32:57.209Z,41.63
2018-12-04T07:35:26.051Z,44.77
2018-12-04T07:37:54.849Z,49.93
2018-12-04T07:40:23.654Z,51.33
2018-12-04T07:42:52.516Z,54.70
2018-12-04T07:45:21.309Z,51.10
2018-12-04T07:47:50.157Z,58.00
2018-12-04T07:50:18.971Z,51.17
2018-12-04T07:52:47.813Z,49.47
2018-12-04T07:55:16.601Z,48.60
2018-12-04T07:57:45.406Z,41.20
2018-12-04T08:00:16.465Z,39.47
2018-12-04T08:02:45.279Z,47.20
2018-12-04T08:05:14.090Z,49.30
2018-12-04T08:07:42.966Z,45.40
2018-12-04T08:10:11.769Z,51.83
2018-12-04T08:12:40.565Z,50.80
2018-12-04T08:15:09.441Z,51.00
2018-12-04T08:17:38.254Z,52.50
2018-12-04T08:20:09.706Z,49.93
2018-12-04T08:22:38.639Z,49.20
2018-12-04T08:25:07.790Z,57.48
2018-12-04T08:27:40.309Z,54.73
2018-12-04T08:30:09.579Z,52.50
2018-12-04T08:32:39.583Z,50.17
2018-12-04T08:35:10.173Z,52.90
2018-12-04T08:37:39.593Z,51.10
2018-12-04T08:40:11.229Z,56.10
2018-12-04T08:42:40.066Z,65.77
2018-12-04T08:45:10.385Z,60.53
2018-12-04T08:47:40.840Z,59.57
2018-12-04T08:50:09.671Z,63.33
2018-12-04T08:52:38.625Z,63.63
2018-12-04T08:55:07.630Z,64.33
2018-12-04T08:57:36.435Z,57.83
2018-12-04T09:00:06.326Z,56.40
2018-12-04T09:02:36.678Z,62.83
2018-12-04T09:05:06.116Z,57.57
2018-12-04T09:07:35.929Z,54.07
2018-12-04T09:10:05.681Z,57.07
2018-12-04T09:12:34.511Z,53.07
2018-12-04T09:15:03.470Z,56.50
2018-12-04T09:17:32.330Z,55.60
2018-12-04T09:20:01.163Z,57.67
2018-12-04T09:22:30.696Z,58.23
2018-12-04T09:25:00.237Z,52.37
2018-12-04T09:27:29.566Z,57.97
2018-12-04T09:29:58.477Z,56.17
2018-12-04T09:32:28.706Z,61.90
2018-12-04T09:34:57.665Z,58.17
2018-12-04T09:37:26.453Z,61.90
2018-12-04T09:39:55.327Z,55.20
2018-12-04T09:42:24.249Z,59.27
2018-12-04T09:44:53.090Z,57.77
2018-12-04T09:47:21.918Z,53.20
2018-12-04T09:49:54.405Z,52.87
2018-12-04T09:52:24.698Z,55.57
2018-12-04T09:54:53.509Z,55.37
2018-12-04T09:57:22.425Z,58.13
2018-12-04T09:59:51.239Z,58.43
2018-12-04T10:02:20.078Z,52.00
2018-12-04T10:04:48.937Z,50.33
2018-12-04T10:07:17.769Z,57.00
2018-12-04T10:09:46.586Z,55.30
2018-12-04T10:12:16.702Z,49.67
2018-12-04T10:19:04.869Z,54.47
2018-12-04T10:21:33.670Z,49.67
2018-12-04T10:24:02.493Z,50.00
2018-12-04T10:26:32.573Z,47.67
2018-12-04T10:29:01.418Z,48.40
2018-12-04T10:31:31.462Z,45.63
2018-12-04T10:34:00.321Z,44.83
2018-12-04T10:36:29.126Z,44.93
2018-12-04T10:38:58.751Z,42.17
2018-12-04T10:41:27.695Z,46.13
2018-12-04T10:43:56.650Z,39.63
2018-12-04T10:46:25.505Z,56.37
2018-12-04T10:48:54.333Z,56.17
2018-12-04T10:51:23.153Z,49.50
2018-12-04T10:53:51.999Z,48.20
2018-12-04T10:56:20.803Z,53.97
2018-12-04T10:58:49.923Z,49.27
2018-12-04T11:01:27.641Z,47.27
2018-12-04T11:03:56.440Z,49.47
2018-12-04T11:06:25.370Z,46.83
2018-12-04T11:08:54.252Z,47.97
2018-12-04T11:11:23.037Z,47.37
2018-12-04T11:13:51.818Z,53.10
2018-12-04T11:16:20.650Z,52.27
2018-12-04T11:18:49.430Z,54.90
2018-12-04T11:21:18.221Z,56.70
2018-12-04T11:23:48.245Z,53.67
2018-12-04T11:26:17.049Z,51.50
2018-12-04T11:28:45.829Z,60.40
2018-12-04T11:31:14.731Z,60.03
2018-12-04T11:33:44.011Z,64.90
2018-12-04T11:36:12.822Z,62.87
2018-12-04T11:38:43.037Z,59.50
2018-12-04T11:41:11.862Z,64.00
2018-12-04T11:43:40.714Z,65.77
2018-12-04T11:46:09.515Z,61.57
2018-12-04T11:48:38.301Z,57.10
2018-12-04T11:51:07.158Z,56.53
2018-12-04T11:53:35.972Z,53.43
2018-12-04T11:56:04.772Z,53.57
2018-12-04T11:58:33.758Z,59.70
2018-12-04T12:21:18.375Z,56.80
2018-12-04T12:23:47.219Z,54.67
2018-12-04T12:26:16.579Z,49.40
2018-12-04T12:28:45.469Z,54.43
2018-12-04T12:31:14.289Z,53.10
2018-12-04T12:33:43.145Z,49.60
2018-12-04T12:36:12.030Z,50.77
2018-12-04T12:41:23.946Z,56.63
2018-12-04T12:43:52.916Z,55.07
2018-12-04T12:46:22.616Z,57.97
2018-12-04T12:48:51.518Z,53.57
2018-12-04T12:51:20.360Z,56.07
2018-12-04T12:53:49.241Z,58.17
2018-12-04T12:56:18.140Z,60.53
2018-12-04T12:58:46.998Z,60.70
2018-12-04T13:01:15.856Z,57.40
2018-12-04T13:03:44.694Z,50.23
2018-12-04T13:06:13.665Z,56.17
2018-12-04T13:08:42.516Z,61.50
2018-12-04T13:11:12.683Z,56.10
2018-12-04T13:13:41.571Z,50.07
2018-12-04T13:16:10.466Z,51.30
2018-12-04T13:18:39.297Z,50.67
2018-12-04T13:21:08.114Z,48.33
2018-12-04T13:23:36.984Z,51.70
2018-12-04T13:26:05.870Z,53.67
2018-12-04T13:28:34.723Z,51.17
2018-12-04T13:31:03.624Z,56.43
2018-12-04T13:33:32.593Z,60.73
2018-12-04T13:36:02.434Z,52.37
2018-12-04T13:38:31.272Z,56.77
2018-12-04T13:41:00.076Z,57.07
2018-12-04T13:43:29.413Z,62.47
2018-12-04T13:45:58.228Z,60.13
2018-12-04T13:48:27.030Z,59.37
2018-12-04T13:50:55.914Z,55.80
2018-12-04T13:53:24.745Z,55.80
2018-12-04T13:55:54.917Z,57.63
2018-12-04T13:58:23.768Z,56.57
2018-12-04T14:00:52.637Z,53.37
2018-12-04T14:03:21.509Z,63.63
2018-12-04T14:05:50.329Z,64.40
2018-12-04T14:08:19.217Z,54.37
2018-12-04T14:10:48.128Z,60.83
2018-12-04T14:13:16.977Z,60.47
2018-12-04T14:15:45.780Z,57.80
2018-12-04T14:18:15.198Z,53.60
2018-12-04T14:20:44.051Z,60.83
2018-12-04T14:23:12.901Z,55.13
2018-12-04T14:25:41.941Z,62.33
2018-12-04T14:28:10.772Z,58.53
2018-12-04T14:30:40.646Z,61.47
2018-12-04T14:33:09.467Z,60.73
2018-12-04T14:35:38.321Z,67.90
2018-12-04T14:38:07.252Z,61.40
2018-12-04T14:40:36.206Z,61.07
2018-12-04T14:43:05.178Z,60.20
2018-12-04T14:45:35.320Z,64.37
2018-12-04T14:48:04.209Z,62.37
2018-12-04T14:50:33.229Z,55.07
2018-12-04T14:53:02.265Z,64.07
2018-12-04T14:55:31.209Z,59.57
2018-12-04T14:58:01.469Z,58.10
2018-12-04T15:00:30.360Z,54.40
2018-12-04T15:02:59.170Z,59.87
2018-12-04T15:05:28.130Z,50.57
2018-12-04T15:07:57.018Z,55.80
2018-12-04T15:10:25.911Z,61.27
2018-12-04T15:12:54.882Z,58.63
2018-12-04T15:15:24.795Z,62.37
2018-12-04T15:17:53.855Z,66.63
2018-12-04T15:20:22.824Z,58.87
2018-12-04T15:22:51.673Z,67.20
2018-12-04T15:25:20.538Z,62.93
2018-12-04T15:27:50.892Z,66.87
2018-12-04T15:30:19.766Z,64.53
2018-12-04T15:32:48.701Z,73.20
2018-12-04T15:35:17.571Z,69.93
2018-12-04T15:37:46.455Z,69.40
2018-12-04T15:40:15.407Z,73.60
2018-12-04T15:42:45.546Z,100.60
2018-12-04T15:45:14.512Z,70.03
2018-12-04T15:47:43.371Z,73.93
2018-12-04T15:50:12.263Z,82.30
2018-12-04T15:52:41.136Z,75.50
2018-12-04T15:55:10.076Z,81.50
2018-12-04T15:57:40.265Z,72.47
2018-12-04T16:00:10.977Z,75.07
2018-12-04T16:02:39.870Z,71.87
2018-12-04T16:05:10.108Z,75.20
2018-12-04T16:07:39.292Z,74.53
2018-12-04T16:10:11.259Z,76.87
2018-12-04T16:12:40.115Z,127.03
2018-12-04T16:15:09.421Z,69.80
2018-12-04T16:17:38.234Z,48.60
2018-12-04T16:20:08.383Z,68.57
2018-12-04T16:22:37.284Z,94.87
2018-12-04T16:25:07.833Z,94.87
2018-12-04T16:27:36.769Z,105.47
2018-12-04T16:30:09.789Z,52.53
2018-12-04T16:32:38.671Z,49.23
2018-12-04T16:37:48.826Z,60.03
2018-12-04T16:40:17.680Z,65.77
2018-12-04T16:42:46.533Z,70.10
2018-12-04T16:45:16.608Z,63.53
2018-12-04T16:47:45.449Z,70.43
2018-12-04T16:50:14.293Z,69.10
2018-12-04T16:52:44.460Z,54.40
2018-12-04T16:55:13.357Z,55.97
2018-12-04T16:57:42.198Z,70.55
2018-12-04T17:00:13.308Z,70.40
2018-12-04T17:02:42.152Z,65.87
2018-12-04T17:05:14.048Z,69.27
2018-12-04T17:07:42.904Z,76.95
2018-12-04T17:10:12.033Z,72.87
2018-12-04T17:12:40.969Z,70.73
2018-12-04T17:15:09.979Z,69.97
2018-12-04T17:17:40.060Z,60.03
2018-12-04T17:20:10.386Z,69.53
2018-12-04T17:22:39.225Z,59.47
2018-12-04T17:25:08.108Z,80.00
2018-12-04T17:27:38.298Z,71.97
2018-12-04T17:30:09.630Z,74.20
2018-12-04T17:32:39.975Z,68.60
2018-12-04T17:35:08.829Z,62.33
2018-12-04T17:37:37.667Z,62.03
2018-12-04T17:40:07.461Z,54.07
2018-12-04T17:42:36.286Z,59.70
2018-12-04T17:45:07.349Z,48.57
2018-12-04T17:47:37.575Z,63.43
2018-12-04T17:50:08.121Z,70.07
2018-12-04T17:52:37.011Z,67.73
2018-12-04T17:55:06.370Z,59.50
2018-12-04T17:57:36.677Z,66.43
2018-12-04T18:00:06.302Z,69.13
2018-12-04T18:02:35.101Z,79.73
2018-12-04T18:05:04.138Z,70.93
2018-12-04T18:07:32.978Z,52.10
2018-12-04T18:10:01.851Z,72.77
2018-12-04T18:12:30.728Z,74.80
2018-12-04T18:14:59.616Z,83.90
2018-12-04T18:17:30.070Z,68.13
2018-12-04T18:19:58.914Z,67.73
2018-12-04T18:22:27.789Z,65.27
2018-12-04T18:24:57.914Z,66.13
2018-12-04T18:27:26.738Z,75.70
2018-12-04T18:29:55.939Z,79.80
2018-12-04T18:32:25.318Z,84.07
2018-12-04T18:34:54.145Z,91.47
2018-12-04T18:37:25.294Z,93.43
2018-12-04T18:39:54.286Z,77.33
2018-12-04T18:42:23.152Z,91.77
2018-12-04T18:44:53.621Z,98.40
2018-12-04T18:47:22.515Z,96.97
2018-12-04T18:49:51.430Z,86.03
2018-12-04T18:52:20.359Z,85.17
2018-12-04T18:54:49.217Z,81.43
2018-12-04T18:57:19.537Z,101.17
2018-12-04T18:59:48.444Z,80.40
2018-12-04T19:02:17.351Z,89.43
2018-12-04T19:04:46.375Z,76.93
2018-12-04T19:07:15.274Z,73.40
2018-12-04T19:09:44.127Z,77.40
2018-12-04T19:12:13.101Z,72.90
2018-12-04T19:14:42.009Z,78.07
2018-12-04T19:17:10.849Z,64.57
2018-12-04T19:19:39.692Z,54.63
2018-12-04T19:22:10.179Z,70.10
2018-12-04T19:24:39.013Z,79.37
2018-12-04T19:27:08.778Z,81.37
2018-12-04T19:29:37.853Z,64.40
2018-12-04T19:32:06.711Z,55.47
2018-12-04T19:34:35.694Z,75.20
2018-12-04T19:37:04.568Z,68.73
2018-12-04T19:39:34.902Z,70.10
2018-12-04T19:42:03.953Z,44.00
2018-12-04T19:44:32.827Z,53.93
2018-12-04T19:47:01.697Z,61.53
2018-12-04T19:49:30.497Z,75.53
2018-12-04T19:51:59.410Z,88.17
2018-12-04T19:54:28.223Z,91.00
2018-12-04T19:56:57.055Z,93.10
2018-12-04T19:59:25.950Z,90.60
2018-12-04T20:01:54.761Z,100.13
2018-12-04T20:04:23.575Z,95.37
2018-12-04T20:06:54.049Z,97.63
2018-12-04T20:09:22.882Z,104.90
2018-12-04T20:11:52.209Z,99.67
2018-12-04T20:14:22.562Z,100.87
2018-12-04T20:16:51.390Z,98.77
2018-12-04T20:19:20.483Z,97.33
2018-12-04T20:21:49.343Z,102.83
2018-12-04T20:24:18.221Z,95.47
2018-12-04T20:26:47.021Z,98.80
2018-12-04T20:29:15.864Z,92.23
2018-12-04T20:31:44.733Z,100.27
2018-12-04T20:34:13.562Z,92.83
2018-12-04T20:36:42.397Z,92.40
2018-12-04T20:39:11.283Z,92.57
2018-12-04T20:41:40.131Z,88.23
2018-12-04T20:44:08.934Z,86.60
2018-12-04T20:46:37.815Z,91.77
2018-12-04T20:49:06.666Z,97.83
2018-12-04T20:51:35.494Z,88.40
2018-12-04T20:54:04.597Z,92.77
2018-12-04T20:56:33.415Z,83.90
2018-12-04T20:59:02.506Z,88.83
2018-12-04T21:01:31.542Z,99.33
2018-12-04T21:04:00.370Z,89.87
2018-12-04T21:06:29.230Z,112.42
2018-12-04T21:08:58.178Z,105.97
2018-12-04T21:11:27.024Z,99.97
2018-12-04T21:13:55.951Z,118.63
2018-12-04T21:16:24.831Z,120.00
2018-12-04T21:18:53.686Z,102.30
2018-12-04T21:21:22.523Z,108.63
2018-12-04T21:23:51.381Z,99.07
2018-12-04T21:26:20.324Z,87.23
2018-12-04T21:28:54.243Z,103.27
2018-12-04T21:31:28.101Z,98.10
2018-12-04T21:34:03.301Z,86.87
2018-12-04T21:36:37.331Z,83.67
2018-12-04T21:39:13.905Z,80.17
2018-12-04T21:41:47.825Z,87.03
2018-12-04T21:44:21.773Z,96.17
2018-12-04T21:46:55.633Z,95.60
2018-12-04T21:49:29.857Z,79.67
2018-12-04T21:51:59.977Z,83.70
2018-12-04T21:54:28.817Z,58.47
2018-12-04T21:56:57.613Z,75.57
2018-12-04T21:59:26.558Z,61.67
2018-12-04T22:01:55.388Z,52.80
2018-12-04T22:04:24.229Z,53.90
2018-12-04T22:06:53.089Z,51.27
2018-12-04T22:09:21.912Z,59.10
2018-12-04T22:11:50.770Z,58.97
2018-12-04T22:14:19.654Z,52.17
2018-12-04T22:16:48.483Z,52.30
2018-12-04T22:19:17.346Z,47.10
2018-12-04T22:21:46.677Z,42.17
2018-12-04T22:24:15.509Z,37.53
2018-12-04T22:26:44.321Z,47.17
2018-12-04T22:29:13.195Z,34.40
2018-12-04T22:31:42.015Z,29.07
2018-12-04T22:34:10.851Z,24.23
2018-12-04T22:36:40.307Z,24.17
2018-12-04T22:39:10.358Z,24.93
2018-12-04T22:41:39.215Z,25.23
2018-12-04T22:44:08.097Z,22.03
2018-12-04T22:46:37.167Z,22.33
2018-12-04T22:49:06.394Z,25.30
2018-12-04T22:51:36.703Z,26.20
2018-12-04T22:54:05.717Z,25.97
2018-12-04T22:56:34.565Z,28.23
2018-12-04T22:59:03.408Z,28.80
2018-12-04T23:01:41.382Z,21.20
2018-12-04T23:04:10.392Z,23.47
2018-12-04T23:06:39.239Z,23.37
2018-12-04T23:09:10.969Z,21.03
2018-12-04T23:11:40.541Z,22.00
2018-12-04T23:14:09.368Z,22.60
2018-12-04T23:16:38.350Z,21.60
2018-12-04T23:19:07.189Z,20.27
2018-12-04T23:21:36.033Z,20.97
2018-12-04T23:24:04.941Z,20.50
2018-12-04T23:26:33.773Z,21.03
2018-12-04T23:29:02.620Z,19.53
2018-12-04T23:31:31.936Z,19.43
2018-12-04T23:34:00.767Z,16.90
2018-12-04T23:36:29.584Z,21.43
2018-12-04T23:38:58.481Z,18.33
2018-12-04T23:41:27.304Z,17.43
2018-12-04T23:43:56.150Z,18.73
2018-12-04T23:46:25.033Z,17.40
2018-12-04T23:48:53.889Z,16.83
2018-12-04T23:51:22.752Z,17.53
2018-12-04T23:53:51.619Z,21.97
2018-12-04T23:56:20.477Z,18.73
2018-12-04T23:58:49.424Z,20.37
